sensor_id;sensor_type;location;lat;lon;timestamp;P1;durP1;ratioP1;P2;durP2;ratioP2
1366;SDS011;16877;48.810;9.282;2022-12-07T00:01:10;10.43;;;7.63;;
1366;SDS011;16877;48.810;9.282;2022-12-07T00:03:41;11.00;;;7.90;;
1366;SDS011;16877;48.810;9.282;2022-12-07T00:06:11;8.77;;;7.33;;
1366;SDS011;16877;48.810;9.282;2022-12-07T00:08:39;10.77;;;7.53;;
1366;SDS011;16877;48.810;9.282;2022-12-07T00:11:09;9.00;;;7.53;;
1366;SDS011;16877;48.810;9.282;2022-12-07T00:13:40;7.87;;;7.07;;
1366;SDS011;16877;48.810;9.282;2022-12-07T00:16:09;9.20;;;7.23;;
1366;SDS011;16877;48.810;9.282;2022-12-07T00:18:37;9.10;;;6.90;;
1366;SDS011;16877;48.810;9.282;2022-12-07T00:21:05;9.83;;;7.07;;
1366;SDS011;16877;48.810;9.282;2022-12-07T00:23:35;8.27;;;7.13;;
1366;SDS011;16877;48.810;9.282;2022-12-07T00:26:05;8.30;;;6.60;;
1366;SDS011;16877;48.810;9.282;2022-12-07T00:28:34;7.90;;;6.63;;
1366;SDS011;16877;48.810;9.282;2022-12-07T00:31:02;9.33;;;8.13;;
1366;SDS011;16877;48.810;9.282;2022-12-07T00:33:30;11.97;;;8.17;;
1366;SDS011;16877;48.810;9.282;2022-12-07T00:35:58;8.10;;;6.70;;
1366;SDS011;16877;48.810;9.282;2022-12-07T00:38:27;8.47;;;6.77;;
1366;SDS011;16877;48.810;9.282;2022-12-07T00:40:56;9.80;;;7.10;;
1366;SDS011;16877;48.810;9.282;2022-12-07T00:43:28;9.47;;;6.80;;
1366;SDS011;16877;48.810;9.282;2022-12-07T00:45:56;9.73;;;7.20;;
1366;SDS011;16877;48.810;9.282;2022-12-07T00:48:23;9.70;;;7.97;;
1366;SDS011;16877;48.810;9.282;2022-12-07T00:50:51;8.57;;;6.67;;
1366;SDS011;16877;48.810;9.282;2022-12-07T00:53:19;8.27;;;6.87;;
1366;SDS011;16877;48.810;9.282;2022-12-07T00:55:46;8.10;;;6.40;;
1366;SDS011;16877;48.810;9.282;2022-12-07T00:58:15;8.30;;;6.30;;
1366;SDS011;16877;48.810;9.282;2022-12-07T01:00:44;8.67;;;6.70;;
1366;SDS011;16877;48.810;9.282;2022-12-07T01:03:12;10.23;;;7.33;;
1366;SDS011;16877;48.810;9.282;2022-12-07T01:05:48;7.93;;;6.87;;
1366;SDS011;16877;48.810;9.282;2022-12-07T01:08:18;8.57;;;6.70;;
1366;SDS011;16877;48.810;9.282;2022-12-07T01:10:46;7.63;;;5.97;;
1366;SDS011;16877;48.810;9.282;2022-12-07T01:13:15;8.37;;;7.47;;
1366;SDS011;16877;48.810;9.282;2022-12-07T01:15:44;8.20;;;6.50;;
1366;SDS011;16877;48.810;9.282;2022-12-07T01:18:12;8.27;;;6.80;;
1366;SDS011;16877;48.810;9.282;2022-12-07T01:20:43;10.87;;;7.00;;
1366;SDS011;16877;48.810;9.282;2022-12-07T01:23:12;6.87;;;6.10;;
1366;SDS011;16877;48.810;9.282;2022-12-07T01:25:40;8.20;;;7.07;;
1366;SDS011;16877;48.810;9.282;2022-12-07T01:28:07;9.30;;;7.50;;
1366;SDS011;16877;48.810;9.282;2022-12-07T01:30:36;8.47;;;6.70;;
1366;SDS011;16877;48.810;9.282;2022-12-07T01:33:06;8.50;;;6.70;;
1366;SDS011;16877;48.810;9.282;2022-12-07T01:35:36;8.03;;;6.77;;
1366;SDS011;16877;48.810;9.282;2022-12-07T01:38:07;10.00;;;7.10;;
1366;SDS011;16877;48.810;9.282;2022-12-07T01:40:36;8.20;;;7.20;;
1366;SDS011;16877;48.810;9.282;2022-12-07T01:43:04;8.40;;;7.10;;
1366;SDS011;16877;48.810;9.282;2022-12-07T01:45:38;8.20;;;6.67;;
1366;SDS011;16877;48.810;9.282;2022-12-07T01:48:08;9.40;;;6.63;;
1366;SDS011;16877;48.810;9.282;2022-12-07T01:50:37;7.57;;;6.60;;
1366;SDS011;16877;48.810;9.282;2022-12-07T01:53:06;7.57;;;6.30;;
1366;SDS011;16877;48.810;9.282;2022-12-07T01:55:37;8.47;;;7.10;;
1366;SDS011;16877;48.810;9.282;2022-12-07T01:58:08;7.63;;;6.30;;
1366;SDS011;16877;48.810;9.282;2022-12-07T02:00:37;8.13;;;6.83;;
1366;SDS011;16877;48.810;9.282;2022-12-07T02:03:06;7.40;;;6.53;;
1366;SDS011;16877;48.810;9.282;2022-12-07T02:05:38;8.90;;;7.60;;
1366;SDS011;16877;48.810;9.282;2022-12-07T02:08:08;9.20;;;6.70;;
1366;SDS011;16877;48.810;9.282;2022-12-07T02:10:38;8.87;;;7.30;;
1366;SDS011;16877;48.810;9.282;2022-12-07T02:13:06;8.60;;;7.70;;
1366;SDS011;16877;48.810;9.282;2022-12-07T02:15:52;9.07;;;7.10;;
1366;SDS011;16877;48.810;9.282;2022-12-07T02:18:40;8.13;;;6.60;;
1366;SDS011;16877;48.810;9.282;2022-12-07T02:21:15;7.40;;;6.70;;
1366;SDS011;16877;48.810;9.282;2022-12-07T02:23:53;8.43;;;7.33;;
1366;SDS011;16877;48.810;9.282;2022-12-07T02:26:53;9.43;;;7.60;;
1366;SDS011;16877;48.810;9.282;2022-12-07T02:29:37;7.73;;;6.60;;
1366;SDS011;16877;48.810;9.282;2022-12-07T02:32:11;10.07;;;7.63;;
1366;SDS011;16877;48.810;9.282;2022-12-07T02:34:46;8.27;;;6.90;;
1366;SDS011;16877;48.810;9.282;2022-12-07T02:37:19;7.87;;;7.07;;
1366;SDS011;16877;48.810;9.282;2022-12-07T02:39:57;6.97;;;6.20;;
1366;SDS011;16877;48.810;9.282;2022-12-07T02:42:29;8.80;;;7.33;;
1366;SDS011;16877;48.810;9.282;2022-12-07T02:45:05;9.87;;;7.83;;
1366;SDS011;16877;48.810;9.282;2022-12-07T02:47:34;7.90;;;7.10;;
1366;SDS011;16877;48.810;9.282;2022-12-07T02:50:04;7.47;;;6.70;;
1366;SDS011;16877;48.810;9.282;2022-12-07T02:52:32;7.73;;;6.77;;
1366;SDS011;16877;48.810;9.282;2022-12-07T02:55:04;7.50;;;6.67;;
1366;SDS011;16877;48.810;9.282;2022-12-07T02:57:37;8.27;;;7.47;;
1366;SDS011;16877;48.810;9.282;2022-12-07T03:00:17;8.63;;;7.57;;
1366;SDS011;16877;48.810;9.282;2022-12-07T03:02:50;8.67;;;7.73;;
1366;SDS011;16877;48.810;9.282;2022-12-07T03:05:25;8.60;;;7.70;;
1366;SDS011;16877;48.810;9.282;2022-12-07T03:08:05;8.23;;;7.43;;
1366;SDS011;16877;48.810;9.282;2022-12-07T03:10:40;8.77;;;7.30;;
1366;SDS011;16877;48.810;9.282;2022-12-07T03:13:20;7.60;;;6.83;;
1366;SDS011;16877;48.810;9.282;2022-12-07T03:15:55;8.80;;;7.90;;
1366;SDS011;16877;48.810;9.282;2022-12-07T03:18:29;8.07;;;6.83;;
1366;SDS011;16877;48.810;9.282;2022-12-07T03:21:01;8.27;;;7.43;;
1366;SDS011;16877;48.810;9.282;2022-12-07T03:23:32;7.70;;;6.73;;
1366;SDS011;16877;48.810;9.282;2022-12-07T03:26:03;9.53;;;7.83;;
1366;SDS011;16877;48.810;9.282;2022-12-07T03:28:34;8.87;;;7.70;;
1366;SDS011;16877;48.810;9.282;2022-12-07T03:31:09;9.10;;;7.43;;
1366;SDS011;16877;48.810;9.282;2022-12-07T03:33:42;8.43;;;7.47;;
1366;SDS011;16877;48.810;9.282;2022-12-07T03:36:17;7.60;;;6.80;;
1366;SDS011;16877;48.810;9.282;2022-12-07T03:38:50;7.97;;;7.13;;
1366;SDS011;16877;48.810;9.282;2022-12-07T03:41:24;7.60;;;6.80;;
1366;SDS011;16877;48.810;9.282;2022-12-07T03:43:54;7.70;;;6.87;;
1366;SDS011;16877;48.810;9.282;2022-12-07T03:46:27;7.57;;;6.77;;
1366;SDS011;16877;48.810;9.282;2022-12-07T03:49:04;8.60;;;6.40;;
1366;SDS011;16877;48.810;9.282;2022-12-07T03:51:37;7.90;;;7.00;;
1366;SDS011;16877;48.810;9.282;2022-12-07T03:54:10;9.27;;;8.27;;
1366;SDS011;16877;48.810;9.282;2022-12-07T03:56:42;7.50;;;6.80;;
1366;SDS011;16877;48.810;9.282;2022-12-07T03:59:12;8.83;;;7.13;;
1366;SDS011;16877;48.810;9.282;2022-12-07T04:01:44;7.87;;;7.07;;
1366;SDS011;16877;48.810;9.282;2022-12-07T04:04:18;7.50;;;6.73;;
1366;SDS011;16877;48.810;9.282;2022-12-07T04:06:46;7.00;;;6.30;;
1366;SDS011;16877;48.810;9.282;2022-12-07T04:09:13;8.07;;;6.60;;
1366;SDS011;16877;48.810;9.282;2022-12-07T04:11:42;8.73;;;6.57;;
1366;SDS011;16877;48.810;9.282;2022-12-07T04:14:09;7.90;;;7.10;;
1366;SDS011;16877;48.810;9.282;2022-12-07T04:16:47;6.87;;;6.10;;
1366;SDS011;16877;48.810;9.282;2022-12-07T04:19:17;7.60;;;6.80;;
1366;SDS011;16877;48.810;9.282;2022-12-07T04:21:45;8.90;;;7.93;;
1366;SDS011;16877;48.810;9.282;2022-12-07T04:24:13;9.77;;;7.27;;
1366;SDS011;16877;48.810;9.282;2022-12-07T04:26:43;8.00;;;7.07;;
1366;SDS011;16877;48.810;9.282;2022-12-07T04:29:12;9.37;;;7.93;;
1366;SDS011;16877;48.810;9.282;2022-12-07T04:31:41;9.23;;;8.23;;
1366;SDS011;16877;48.810;9.282;2022-12-07T04:34:10;7.90;;;6.40;;
1366;SDS011;16877;48.810;9.282;2022-12-07T04:36:38;7.80;;;7.00;;
1366;SDS011;16877;48.810;9.282;2022-12-07T04:39:06;8.17;;;7.37;;
1366;SDS011;16877;48.810;9.282;2022-12-07T04:41:34;10.37;;;7.80;;
1366;SDS011;16877;48.810;9.282;2022-12-07T04:44:02;7.73;;;6.90;;
1366;SDS011;16877;48.810;9.282;2022-12-07T04:46:32;9.70;;;8.70;;
1366;SDS011;16877;48.810;9.282;2022-12-07T04:49:00;9.50;;;6.77;;
1366;SDS011;16877;48.810;9.282;2022-12-07T04:51:29;8.70;;;7.80;;
1366;SDS011;16877;48.810;9.282;2022-12-07T04:53:57;7.33;;;6.63;;
1366;SDS011;16877;48.810;9.282;2022-12-07T04:56:25;7.00;;;6.20;;
1366;SDS011;16877;48.810;9.282;2022-12-07T04:58:54;7.60;;;6.27;;
1366;SDS011;16877;48.810;9.282;2022-12-07T05:01:22;7.63;;;6.30;;
1366;SDS011;16877;48.810;9.282;2022-12-07T05:03:51;6.77;;;5.97;;
1366;SDS011;16877;48.810;9.282;2022-12-07T05:06:20;6.50;;;5.53;;
1366;SDS011;16877;48.810;9.282;2022-12-07T05:08:53;6.40;;;5.80;;
1366;SDS011;16877;48.810;9.282;2022-12-07T05:11:21;6.27;;;5.63;;
1366;SDS011;16877;48.810;9.282;2022-12-07T05:14:09;5.73;;;5.13;;
1366;SDS011;16877;48.810;9.282;2022-12-07T05:16:39;7.00;;;6.10;;
1366;SDS011;16877;48.810;9.282;2022-12-07T05:19:12;6.37;;;5.20;;
1366;SDS011;16877;48.810;9.282;2022-12-07T05:21:40;5.93;;;5.17;;
1366;SDS011;16877;48.810;9.282;2022-12-07T05:24:11;7.00;;;6.00;;
1366;SDS011;16877;48.810;9.282;2022-12-07T05:26:41;6.70;;;5.97;;
1366;SDS011;16877;48.810;9.282;2022-12-07T05:29:10;6.20;;;5.37;;
1366;SDS011;16877;48.810;9.282;2022-12-07T05:31:38;7.47;;;6.67;;
1366;SDS011;16877;48.810;9.282;2022-12-07T05:34:06;6.60;;;5.93;;
1366;SDS011;16877;48.810;9.282;2022-12-07T05:36:35;6.97;;;6.27;;
1366;SDS011;16877;48.810;9.282;2022-12-07T05:39:03;6.87;;;6.17;;
1366;SDS011;16877;48.810;9.282;2022-12-07T05:41:36;7.53;;;6.10;;
1366;SDS011;16877;48.810;9.282;2022-12-07T05:44:21;6.63;;;5.93;;
1366;SDS011;16877;48.810;9.282;2022-12-07T05:46:48;6.63;;;5.90;;
1366;SDS011;16877;48.810;9.282;2022-12-07T05:49:20;8.00;;;7.20;;
1366;SDS011;16877;48.810;9.282;2022-12-07T05:51:49;8.30;;;7.00;;
1366;SDS011;16877;48.810;9.282;2022-12-07T05:54:19;7.90;;;6.83;;
1366;SDS011;16877;48.810;9.282;2022-12-07T05:56:48;7.93;;;6.87;;
1366;SDS011;16877;48.810;9.282;2022-12-07T05:59:21;8.40;;;7.50;;
1366;SDS011;16877;48.810;9.282;2022-12-07T06:01:53;8.00;;;6.80;;
1366;SDS011;16877;48.810;9.282;2022-12-07T06:04:22;6.97;;;6.23;;
1366;SDS011;16877;48.810;9.282;2022-12-07T06:06:51;7.97;;;6.67;;
1366;SDS011;16877;48.810;9.282;2022-12-07T06:09:19;7.57;;;6.47;;
1366;SDS011;16877;48.810;9.282;2022-12-07T06:11:50;7.50;;;6.10;;
1366;SDS011;16877;48.810;9.282;2022-12-07T06:14:35;7.60;;;6.90;;
1366;SDS011;16877;48.810;9.282;2022-12-07T06:17:03;7.60;;;6.00;;
1366;SDS011;16877;48.810;9.282;2022-12-07T06:19:30;8.60;;;6.43;;
1366;SDS011;16877;48.810;9.282;2022-12-07T06:21:58;7.33;;;6.53;;
1366;SDS011;16877;48.810;9.282;2022-12-07T06:24:26;6.90;;;6.20;;
1366;SDS011;16877;48.810;9.282;2022-12-07T06:26:56;8.57;;;7.00;;
1366;SDS011;16877;48.810;9.282;2022-12-07T06:29:24;7.03;;;6.33;;
1366;SDS011;16877;48.810;9.282;2022-12-07T06:31:52;8.10;;;6.73;;
1366;SDS011;16877;48.810;9.282;2022-12-07T06:34:20;7.23;;;6.00;;
1366;SDS011;16877;48.810;9.282;2022-12-07T06:36:49;7.43;;;6.73;;
1366;SDS011;16877;48.810;9.282;2022-12-07T06:39:18;7.73;;;6.93;;
1366;SDS011;16877;48.810;9.282;2022-12-07T06:41:46;8.53;;;7.60;;
1366;SDS011;16877;48.810;9.282;2022-12-07T06:44:16;9.57;;;8.67;;
1366;SDS011;16877;48.810;9.282;2022-12-07T06:46:44;9.00;;;7.87;;
1366;SDS011;16877;48.810;9.282;2022-12-07T06:49:13;9.40;;;8.30;;
1366;SDS011;16877;48.810;9.282;2022-12-07T06:51:40;9.40;;;7.63;;
1366;SDS011;16877;48.810;9.282;2022-12-07T06:54:11;7.73;;;6.93;;
1366;SDS011;16877;48.810;9.282;2022-12-07T06:56:41;10.30;;;8.23;;
1366;SDS011;16877;48.810;9.282;2022-12-07T06:59:09;8.83;;;7.63;;
1366;SDS011;16877;48.810;9.282;2022-12-07T07:01:38;8.53;;;7.63;;
1366;SDS011;16877;48.810;9.282;2022-12-07T07:04:05;9.50;;;8.20;;
1366;SDS011;16877;48.810;9.282;2022-12-07T07:06:38;7.70;;;6.90;;
1366;SDS011;16877;48.810;9.282;2022-12-07T07:09:06;7.03;;;6.27;;
1366;SDS011;16877;48.810;9.282;2022-12-07T07:11:35;6.13;;;4.47;;
1366;SDS011;16877;48.810;9.282;2022-12-07T07:14:08;6.93;;;3.80;;
1366;SDS011;16877;48.810;9.282;2022-12-07T07:16:54;5.90;;;4.50;;
1366;SDS011;16877;48.810;9.282;2022-12-07T07:19:22;4.90;;;3.90;;
1366;SDS011;16877;48.810;9.282;2022-12-07T07:21:50;6.60;;;4.30;;
1366;SDS011;16877;48.810;9.282;2022-12-07T07:24:22;6.33;;;5.47;;
1366;SDS011;16877;48.810;9.282;2022-12-07T07:26:50;7.50;;;6.20;;
1366;SDS011;16877;48.810;9.282;2022-12-07T07:29:24;8.03;;;7.07;;
1366;SDS011;16877;48.810;9.282;2022-12-07T07:31:54;8.57;;;7.67;;
1366;SDS011;16877;48.810;9.282;2022-12-07T07:34:27;7.27;;;6.57;;
1366;SDS011;16877;48.810;9.282;2022-12-07T07:36:54;9.90;;;7.57;;
1366;SDS011;16877;48.810;9.282;2022-12-07T07:39:22;7.33;;;6.63;;
1366;SDS011;16877;48.810;9.282;2022-12-07T07:41:50;7.70;;;6.27;;
1366;SDS011;16877;48.810;9.282;2022-12-07T07:44:17;8.23;;;7.17;;
1366;SDS011;16877;48.810;9.282;2022-12-07T07:46:46;7.30;;;6.43;;
1366;SDS011;16877;48.810;9.282;2022-12-07T07:49:24;7.37;;;6.67;;
1366;SDS011;16877;48.810;9.282;2022-12-07T07:52:08;5.93;;;5.33;;
1366;SDS011;16877;48.810;9.282;2022-12-07T07:54:36;5.63;;;5.13;;
1366;SDS011;16877;48.810;9.282;2022-12-07T07:57:09;8.03;;;5.70;;
1366;SDS011;16877;48.810;9.282;2022-12-07T07:59:38;6.90;;;5.63;;
1366;SDS011;16877;48.810;9.282;2022-12-07T08:02:13;6.93;;;6.23;;
1366;SDS011;16877;48.810;9.282;2022-12-07T08:04:56;5.87;;;5.27;;
1366;SDS011;16877;48.810;9.282;2022-12-07T08:07:26;6.77;;;5.00;;
1366;SDS011;16877;48.810;9.282;2022-12-07T08:09:56;6.10;;;5.50;;
1366;SDS011;16877;48.810;9.282;2022-12-07T08:12:23;5.40;;;4.90;;
1366;SDS011;16877;48.810;9.282;2022-12-07T08:14:51;5.90;;;4.80;;
1366;SDS011;16877;48.810;9.282;2022-12-07T08:17:22;6.43;;;5.13;;
1366;SDS011;16877;48.810;9.282;2022-12-07T08:19:50;6.27;;;5.43;;
1366;SDS011;16877;48.810;9.282;2022-12-07T08:22:22;6.10;;;5.50;;
1366;SDS011;16877;48.810;9.282;2022-12-07T08:24:52;6.10;;;5.50;;
1366;SDS011;16877;48.810;9.282;2022-12-07T08:27:24;6.70;;;5.53;;
1366;SDS011;16877;48.810;9.282;2022-12-07T08:29:53;7.10;;;5.53;;
1366;SDS011;16877;48.810;9.282;2022-12-07T08:32:21;8.90;;;6.40;;
1366;SDS011;16877;48.810;9.282;2022-12-07T08:34:49;6.37;;;5.50;;
1366;SDS011;16877;48.810;9.282;2022-12-07T08:37:17;9.33;;;5.47;;
1366;SDS011;16877;48.810;9.282;2022-12-07T08:39:47;7.13;;;5.87;;
1366;SDS011;16877;48.810;9.282;2022-12-07T08:42:15;5.97;;;5.37;;
1366;SDS011;16877;48.810;9.282;2022-12-07T08:44:45;6.87;;;6.17;;
1366;SDS011;16877;48.810;9.282;2022-12-07T08:47:13;7.30;;;6.40;;
1366;SDS011;16877;48.810;9.282;2022-12-07T08:49:42;7.07;;;5.87;;
1366;SDS011;16877;48.810;9.282;2022-12-07T08:52:15;7.80;;;6.03;;
1366;SDS011;16877;48.810;9.282;2022-12-07T08:54:44;5.60;;;5.10;;
1366;SDS011;16877;48.810;9.282;2022-12-07T08:57:13;7.70;;;6.07;;
1366;SDS011;16877;48.810;9.282;2022-12-07T08:59:47;7.70;;;6.33;;
1366;SDS011;16877;48.810;9.282;2022-12-07T09:02:16;6.57;;;5.73;;
1366;SDS011;16877;48.810;9.282;2022-12-07T09:04:44;7.90;;;6.10;;
1366;SDS011;16877;48.810;9.282;2022-12-07T09:07:13;8.07;;;6.70;;
1366;SDS011;16877;48.810;9.282;2022-12-07T09:09:42;6.97;;;6.27;;
1366;SDS011;16877;48.810;9.282;2022-12-07T09:12:10;7.00;;;6.30;;
1366;SDS011;16877;48.810;9.282;2022-12-07T09:14:40;6.80;;;6.10;;
1366;SDS011;16877;48.810;9.282;2022-12-07T09:20:03;6.23;;;5.23;;
1366;SDS011;16877;48.810;9.282;2022-12-07T09:22:32;7.00;;;6.03;;
1366;SDS011;16877;48.810;9.282;2022-12-07T09:25:01;7.30;;;5.80;;
1366;SDS011;16877;48.810;9.282;2022-12-07T09:27:30;7.43;;;6.63;;
1366;SDS011;16877;48.810;9.282;2022-12-07T09:30:05;7.33;;;6.03;;
1366;SDS011;16877;48.810;9.282;2022-12-07T09:32:36;8.03;;;6.53;;
1366;SDS011;16877;48.810;9.282;2022-12-07T09:35:05;7.30;;;5.77;;
1366;SDS011;16877;48.810;9.282;2022-12-07T09:37:35;7.70;;;5.73;;
1366;SDS011;16877;48.810;9.282;2022-12-07T09:40:03;6.07;;;5.30;;
1366;SDS011;16877;48.810;9.282;2022-12-07T09:42:34;6.97;;;6.27;;
1366;SDS011;16877;48.810;9.282;2022-12-07T09:45:07;6.40;;;5.60;;
1366;SDS011;16877;48.810;9.282;2022-12-07T09:47:45;9.07;;;6.27;;
1366;SDS011;16877;48.810;9.282;2022-12-07T09:50:16;6.63;;;5.97;;
1366;SDS011;16877;48.810;9.282;2022-12-07T09:52:47;7.37;;;5.70;;
1366;SDS011;16877;48.810;9.282;2022-12-07T09:55:27;7.40;;;6.43;;
1366;SDS011;16877;48.810;9.282;2022-12-07T09:58:00;6.90;;;5.83;;
1366;SDS011;16877;48.810;9.282;2022-12-07T10:00:31;6.37;;;5.40;;
1366;SDS011;16877;48.810;9.282;2022-12-07T10:03:02;6.23;;;5.63;;
1366;SDS011;16877;48.810;9.282;2022-12-07T10:05:41;6.53;;;5.80;;
1366;SDS011;16877;48.810;9.282;2022-12-07T10:08:11;8.80;;;5.33;;
1366;SDS011;16877;48.810;9.282;2022-12-07T10:10:40;5.63;;;4.90;;
1366;SDS011;16877;48.810;9.282;2022-12-07T10:13:10;6.70;;;5.00;;
1366;SDS011;16877;48.810;9.282;2022-12-07T10:15:44;6.73;;;5.20;;
1366;SDS011;16877;48.810;9.282;2022-12-07T10:18:19;6.93;;;4.77;;
1366;SDS011;16877;48.810;9.282;2022-12-07T10:20:59;5.30;;;4.60;;
1366;SDS011;16877;48.810;9.282;2022-12-07T10:23:38;4.80;;;3.50;;
1366;SDS011;16877;48.810;9.282;2022-12-07T10:29:01;5.23;;;4.20;;
1366;SDS011;16877;48.810;9.282;2022-12-07T10:31:41;5.53;;;4.00;;
1366;SDS011;16877;48.810;9.282;2022-12-07T10:34:14;5.77;;;4.40;;
1366;SDS011;16877;48.810;9.282;2022-12-07T10:36:50;4.67;;;3.60;;
1366;SDS011;16877;48.810;9.282;2022-12-07T10:39:23;3.93;;;3.00;;
1366;SDS011;16877;48.810;9.282;2022-12-07T10:41:54;3.70;;;3.27;;
1366;SDS011;16877;48.810;9.282;2022-12-07T10:44:23;4.27;;;3.60;;
1366;SDS011;16877;48.810;9.282;2022-12-07T10:47:07;5.90;;;3.53;;
1366;SDS011;16877;48.810;9.282;2022-12-07T10:49:59;5.33;;;3.70;;
1366;SDS011;16877;48.810;9.282;2022-12-07T10:56:06;3.43;;;3.03;;
1366;SDS011;16877;48.810;9.282;2022-12-07T10:58:52;3.97;;;2.93;;
1366;SDS011;16877;48.810;9.282;2022-12-07T11:01:31;4.73;;;2.70;;
1366;SDS011;16877;48.810;9.282;2022-12-07T11:04:24;4.30;;;3.10;;
1366;SDS011;16877;48.810;9.282;2022-12-07T11:07:06;4.40;;;3.40;;
1366;SDS011;16877;48.810;9.282;2022-12-07T11:09:50;5.20;;;3.23;;
1366;SDS011;16877;48.810;9.282;2022-12-07T11:12:33;3.50;;;3.07;;
1366;SDS011;16877;48.810;9.282;2022-12-07T11:15:12;6.40;;;4.40;;
1366;SDS011;16877;48.810;9.282;2022-12-07T11:17:45;4.27;;;3.53;;
1366;SDS011;16877;48.810;9.282;2022-12-07T11:20:28;4.10;;;3.70;;
1366;SDS011;16877;48.810;9.282;2022-12-07T11:23:03;5.77;;;3.23;;
1366;SDS011;16877;48.810;9.282;2022-12-07T11:25:42;4.03;;;3.37;;
1366;SDS011;16877;48.810;9.282;2022-12-07T11:28:18;4.87;;;3.43;;
1366;SDS011;16877;48.810;9.282;2022-12-07T11:31:03;5.53;;;3.60;;
1366;SDS011;16877;48.810;9.282;2022-12-07T11:33:40;6.50;;;3.30;;
1366;SDS011;16877;48.810;9.282;2022-12-07T11:36:23;5.00;;;3.30;;
1366;SDS011;16877;48.810;9.282;2022-12-07T11:39:00;5.37;;;3.90;;
1366;SDS011;16877;48.810;9.282;2022-12-07T11:41:28;4.27;;;3.30;;
1366;SDS011;16877;48.810;9.282;2022-12-07T11:44:04;3.53;;;2.80;;
1366;SDS011;16877;48.810;9.282;2022-12-07T11:46:41;4.90;;;3.17;;
1366;SDS011;16877;48.810;9.282;2022-12-07T11:49:15;4.20;;;3.37;;
1366;SDS011;16877;48.810;9.282;2022-12-07T11:51:51;3.40;;;2.57;;
1366;SDS011;16877;48.810;9.282;2022-12-07T11:54:26;3.80;;;2.83;;
1366;SDS011;16877;48.810;9.282;2022-12-07T11:56:57;3.90;;;2.80;;
1366;SDS011;16877;48.810;9.282;2022-12-07T11:59:31;4.57;;;3.80;;
1366;SDS011;16877;48.810;9.282;2022-12-07T12:02:07;3.80;;;2.97;;
1366;SDS011;16877;48.810;9.282;2022-12-07T12:04:52;4.40;;;3.50;;
1366;SDS011;16877;48.810;9.282;2022-12-07T12:07:27;5.23;;;3.90;;
1366;SDS011;16877;48.810;9.282;2022-12-07T12:09:55;4.10;;;3.50;;
1366;SDS011;16877;48.810;9.282;2022-12-07T12:12:35;4.40;;;4.00;;
1366;SDS011;16877;48.810;9.282;2022-12-07T12:15:16;4.93;;;4.20;;
1366;SDS011;16877;48.810;9.282;2022-12-07T12:18:03;6.30;;;4.53;;
1366;SDS011;16877;48.810;9.282;2022-12-07T12:20:45;5.87;;;3.83;;
1366;SDS011;16877;48.810;9.282;2022-12-07T12:23:18;5.33;;;4.43;;
1366;SDS011;16877;48.810;9.282;2022-12-07T12:25:47;4.30;;;3.50;;
1366;SDS011;16877;48.810;9.282;2022-12-07T12:28:22;6.97;;;4.90;;
1366;SDS011;16877;48.810;9.282;2022-12-07T12:31:07;5.87;;;5.27;;
1366;SDS011;16877;48.810;9.282;2022-12-07T12:33:42;6.70;;;4.70;;
1366;SDS011;16877;48.810;9.282;2022-12-07T12:36:17;4.77;;;4.23;;
1366;SDS011;16877;48.810;9.282;2022-12-07T12:38:51;7.40;;;5.20;;
1366;SDS011;16877;48.810;9.282;2022-12-07T12:41:52;5.00;;;4.50;;
1366;SDS011;16877;48.810;9.282;2022-12-07T12:44:39;5.13;;;4.63;;
1366;SDS011;16877;48.810;9.282;2022-12-07T12:50:21;5.90;;;4.80;;
1366;SDS011;16877;48.810;9.282;2022-12-07T12:52:51;5.80;;;4.83;;
1366;SDS011;16877;48.810;9.282;2022-12-07T12:58:41;5.60;;;4.87;;
1366;SDS011;16877;48.810;9.282;2022-12-07T13:22:46;4.73;;;3.97;;
1366;SDS011;16877;48.810;9.282;2022-12-07T13:25:18;4.83;;;4.00;;
1366;SDS011;16877;48.810;9.282;2022-12-07T13:27:57;5.00;;;4.50;;
1366;SDS011;16877;48.810;9.282;2022-12-07T13:30:30;4.77;;;3.77;;
1366;SDS011;16877;48.810;9.282;2022-12-07T13:33:03;6.53;;;4.63;;
1366;SDS011;16877;48.810;9.282;2022-12-07T13:35:31;4.60;;;4.20;;
1366;SDS011;16877;48.810;9.282;2022-12-07T13:38:03;5.47;;;4.60;;
1366;SDS011;16877;48.810;9.282;2022-12-07T13:40:42;4.40;;;4.00;;
1366;SDS011;16877;48.810;9.282;2022-12-07T13:43:25;5.07;;;4.13;;
1366;SDS011;16877;48.810;9.282;2022-12-07T13:45:55;5.00;;;4.23;;
1366;SDS011;16877;48.810;9.282;2022-12-07T13:48:27;5.70;;;5.07;;
1366;SDS011;16877;48.810;9.282;2022-12-07T13:50:59;7.77;;;5.30;;
1366;SDS011;16877;48.810;9.282;2022-12-07T13:53:27;7.90;;;5.70;;
1366;SDS011;16877;48.810;9.282;2022-12-07T13:55:56;5.43;;;4.90;;
1366;SDS011;16877;48.810;9.282;2022-12-07T13:58:29;6.60;;;4.37;;
1366;SDS011;16877;48.810;9.282;2022-12-07T14:01:04;5.20;;;4.50;;
1366;SDS011;16877;48.810;9.282;2022-12-07T14:03:35;5.60;;;4.90;;
1366;SDS011;16877;48.810;9.282;2022-12-07T14:06:05;7.70;;;5.83;;
1366;SDS011;16877;48.810;9.282;2022-12-07T14:08:39;5.37;;;4.87;;
1366;SDS011;16877;48.810;9.282;2022-12-07T14:11:07;6.13;;;5.53;;
1366;SDS011;16877;48.810;9.282;2022-12-07T14:13:43;6.30;;;5.57;;
1366;SDS011;16877;48.810;9.282;2022-12-07T14:16:18;5.73;;;5.20;;
1366;SDS011;16877;48.810;9.282;2022-12-07T14:18:52;5.40;;;4.80;;
1366;SDS011;16877;48.810;9.282;2022-12-07T14:21:21;5.63;;;4.77;;
1366;SDS011;16877;48.810;9.282;2022-12-07T14:24:02;7.07;;;5.37;;
1366;SDS011;16877;48.810;9.282;2022-12-07T14:26:36;7.67;;;5.33;;
1366;SDS011;16877;48.810;9.282;2022-12-07T14:32:14;5.60;;;5.00;;
1366;SDS011;16877;48.810;9.282;2022-12-07T14:37:40;6.17;;;4.83;;
1366;SDS011;16877;48.810;9.282;2022-12-07T14:40:12;6.10;;;5.20;;
1366;SDS011;16877;48.810;9.282;2022-12-07T14:42:43;5.93;;;5.33;;
1366;SDS011;16877;48.810;9.282;2022-12-07T14:45:13;6.20;;;5.60;;
1366;SDS011;16877;48.810;9.282;2022-12-07T14:47:42;6.70;;;5.40;;
1366;SDS011;16877;48.810;9.282;2022-12-07T14:50:18;5.97;;;5.37;;
1366;SDS011;16877;48.810;9.282;2022-12-07T14:52:47;5.43;;;4.87;;
1366;SDS011;16877;48.810;9.282;2022-12-07T14:55:18;6.27;;;4.70;;
1366;SDS011;16877;48.810;9.282;2022-12-07T14:57:49;5.90;;;5.23;;
1366;SDS011;16877;48.810;9.282;2022-12-07T15:00:17;6.33;;;5.73;;
1366;SDS011;16877;48.810;9.282;2022-12-07T15:02:47;6.00;;;5.03;;
1366;SDS011;16877;48.810;9.282;2022-12-07T15:05:21;8.80;;;5.87;;
1366;SDS011;16877;48.810;9.282;2022-12-07T15:07:53;5.63;;;4.93;;
1366;SDS011;16877;48.810;9.282;2022-12-07T15:10:26;6.30;;;5.03;;
1366;SDS011;16877;48.810;9.282;2022-12-07T15:12:56;9.30;;;6.43;;
1366;SDS011;16877;48.810;9.282;2022-12-07T15:15:46;6.63;;;6.00;;
1366;SDS011;16877;48.810;9.282;2022-12-07T15:18:14;7.10;;;6.40;;
1366;SDS011;16877;48.810;9.282;2022-12-07T15:20:46;7.07;;;6.37;;
1366;SDS011;16877;48.810;9.282;2022-12-07T15:23:15;5.90;;;5.13;;
1366;SDS011;16877;48.810;9.282;2022-12-07T15:25:42;6.87;;;6.17;;
1366;SDS011;16877;48.810;9.282;2022-12-07T15:28:10;7.50;;;6.13;;
1366;SDS011;16877;48.810;9.282;2022-12-07T15:30:38;7.33;;;6.50;;
1366;SDS011;16877;48.810;9.282;2022-12-07T15:33:07;9.97;;;8.37;;
1366;SDS011;16877;48.810;9.282;2022-12-07T15:35:38;8.97;;;7.93;;
1366;SDS011;16877;48.810;9.282;2022-12-07T15:38:07;8.27;;;7.07;;
1366;SDS011;16877;48.810;9.282;2022-12-07T15:40:35;9.13;;;7.57;;
1366;SDS011;16877;48.810;9.282;2022-12-07T15:43:04;10.27;;;8.30;;
1366;SDS011;16877;48.810;9.282;2022-12-07T15:45:53;8.77;;;7.87;;
1366;SDS011;16877;48.810;9.282;2022-12-07T15:48:19;9.90;;;7.80;;
1366;SDS011;16877;48.810;9.282;2022-12-07T15:50:47;8.87;;;7.97;;
1366;SDS011;16877;48.810;9.282;2022-12-07T15:53:16;8.40;;;7.13;;
1366;SDS011;16877;48.810;9.282;2022-12-07T15:55:44;8.53;;;7.30;;
1366;SDS011;16877;48.810;9.282;2022-12-07T15:58:12;9.50;;;8.50;;
1366;SDS011;16877;48.810;9.282;2022-12-07T16:00:40;9.50;;;7.30;;
1366;SDS011;16877;48.810;9.282;2022-12-07T16:03:09;8.83;;;7.90;;
1366;SDS011;16877;48.810;9.282;2022-12-07T16:05:38;9.73;;;8.37;;
1366;SDS011;16877;48.810;9.282;2022-12-07T16:08:05;9.77;;;8.77;;
1366;SDS011;16877;48.810;9.282;2022-12-07T16:10:34;9.33;;;8.43;;
1366;SDS011;16877;48.810;9.282;2022-12-07T16:13:02;8.33;;;6.50;;